Normanton, Queensland

11:38 PM AEST on November 27, 2014 (GMT +1000)
Normanton | Change Station
CLOSE
Current Station
Airport
Location: Normanton Airport, QLD,
Elevation: 72 ft
Nearby Weather Stations

Elev 72 ft 17.68 °S, 141.07 °E | Updated 38 minutes ago

Clear
Clear
82 °F
Feels Like 87 °F
N
7
Wind Variable Wind from SW
Gusts mph

Today
High -- | Low -- °F
--% Chance of Precip.
Yesterday
High -- | Low -- °F
Precip. -- in
5:51 AM 6:55 PM
Waxing Crescent, 29% visible
Pressure 29.77 in
Visibility -9999.0 miles
Clouds
Heat Index 87 °F
Dew Point 72 °F
Humidity 70%
Rainfall 0.00 in
Snow Depth Not available.
UV Not available.
Pollen Not available.
Air Quality Not available.
Flu Activity Not available.
METAR YNTN 271300Z AUTO 23006KT //// // ////// 28/22 Q1008

More Conditions Fewer Conditions

Pressure 29.77 in
Visibility -9999.0 miles
Clouds
Heat Index 87 °F
Dew Point 72 °F
Humidity 70%
Rainfall 0.00 in
Snow Depth Not available.
UV Not available.
Pollen Not available.
Air Quality Not available.
Flu Activity Not available.
METAR YNTN 271300Z AUTO 23006KT //// // ////// 28/22 Q1008

More Conditions Fewer Conditions

10-Day Weather Forecast

Almanac

Astronomy

Nov. 27, 2014 Rise Set
Actual Time
Civil Twilight
Nautical Twilight
Astronomical Twilight
Moon
Length of Visible Light
Length of Day
Tomorrow will be .
, % of the Moon is Illuminated

Today's Extremes

Country Highs Country Lows

Community

WunderPhotos

Upload Photos

1,773,998 photos uploaded!

WunderBlogs® & News

Nearby

Air Quality

  Air Quality AQ Index Pollutant
Not available.

Snow Depth

Station Depth Elevation

Earthquake Activity

City Distance Mag. Time & Date
Minimum magnitude displayed is 2.5.

Coastal Water Temperatures

Place Temperature

Nearby Weather Stations